sensor_id;sensor_type;location;lat;lon;timestamp;temperature;humidity
22444;DHT22;11389;50.864;4.330;2022-09-03T00:02:39;21.90;94.20
22444;DHT22;11389;50.864;4.330;2022-09-03T00:05:17;21.80;95.00
22444;DHT22;11389;50.864;4.330;2022-09-03T00:10:45;21.90;94.70
22444;DHT22;11389;50.864;4.330;2022-09-03T00:13:28;22.00;94.70
22444;DHT22;11389;50.864;4.330;2022-09-03T00:15:57;21.90;94.90
22444;DHT22;11389;50.864;4.330;2022-09-03T00:18:31;21.90;94.90
22444;DHT22;11389;50.864;4.330;2022-09-03T00:21:56;21.90;94.70
22444;DHT22;11389;50.864;4.330;2022-09-03T00:23:59;21.80;95.30
22444;DHT22;11389;50.864;4.330;2022-09-03T00:26:29;21.80;95.10
22444;DHT22;11389;50.864;4.330;2022-09-03T00:31:45;21.60;95.20
22444;DHT22;11389;50.864;4.330;2022-09-03T00:34:39;21.60;94.50
22444;DHT22;11389;50.864;4.330;2022-09-03T00:37:08;21.60;91.70
22444;DHT22;11389;50.864;4.330;2022-09-03T00:39:42;21.60;90.20
22444;DHT22;11389;50.864;4.330;2022-09-03T00:42:42;21.50;86.90
22444;DHT22;11389;50.864;4.330;2022-09-03T00:45:32;21.40;85.60
22444;DHT22;11389;50.864;4.330;2022-09-03T00:48:27;21.40;83.50
22444;DHT22;11389;50.864;4.330;2022-09-03T00:53:32;21.30;83.10
22444;DHT22;11389;50.864;4.330;2022-09-03T00:56:38;21.20;83.00
22444;DHT22;11389;50.864;4.330;2022-09-03T01:02:03;21.20;82.30
22444;DHT22;11389;50.864;4.330;2022-09-03T01:05:08;21.30;82.40
22444;DHT22;11389;50.864;4.330;2022-09-03T01:13:08;21.50;82.10
22444;DHT22;11389;50.864;4.330;2022-09-03T01:15:56;21.50;82.50
22444;DHT22;11389;50.864;4.330;2022-09-03T01:18:35;21.60;82.60
22444;DHT22;11389;50.864;4.330;2022-09-03T01:21:11;21.70;83.10
22444;DHT22;11389;50.864;4.330;2022-09-03T01:32:23;21.70;86.60
22444;DHT22;11389;50.864;4.330;2022-09-03T01:56:18;21.10;93.80
22444;DHT22;11389;50.864;4.330;2022-09-03T01:58:53;21.00;94.20
22444;DHT22;11389;50.864;4.330;2022-09-03T02:01:42;21.00;94.50
22444;DHT22;11389;50.864;4.330;2022-09-03T02:04:21;21.10;94.50
22444;DHT22;11389;50.864;4.330;2022-09-03T02:06:53;21.00;94.80
22444;DHT22;11389;50.864;4.330;2022-09-03T02:09:23;21.10;94.70
22444;DHT22;11389;50.864;4.330;2022-09-03T02:12:09;21.00;95.10
22444;DHT22;11389;50.864;4.330;2022-09-03T02:14:37;21.10;95.20
22444;DHT22;11389;50.864;4.330;2022-09-03T02:17:04;21.10;95.30
22444;DHT22;11389;50.864;4.330;2022-09-03T02:19:33;21.00;95.60
22444;DHT22;11389;50.864;4.330;2022-09-03T02:22:00;21.00;95.90
22444;DHT22;11389;50.864;4.330;2022-09-03T02:24:27;21.10;96.00
22444;DHT22;11389;50.864;4.330;2022-09-03T02:26:55;21.20;95.40
22444;DHT22;11389;50.864;4.330;2022-09-03T02:29:23;21.40;95.50
22444;DHT22;11389;50.864;4.330;2022-09-03T02:31:50;21.30;96.00
22444;DHT22;11389;50.864;4.330;2022-09-03T02:34:17;21.20;96.60
22444;DHT22;11389;50.864;4.330;2022-09-03T02:36:45;21.10;97.20
22444;DHT22;11389;50.864;4.330;2022-09-03T02:39:14;21.10;97.50
22444;DHT22;11389;50.864;4.330;2022-09-03T02:41:42;21.10;97.70
22444;DHT22;11389;50.864;4.330;2022-09-03T02:44:20;21.20;97.80
22444;DHT22;11389;50.864;4.330;2022-09-03T02:47:00;21.20;97.90
22444;DHT22;11389;50.864;4.330;2022-09-03T02:49:28;21.20;98.00
22444;DHT22;11389;50.864;4.330;2022-09-03T02:52:04;21.10;98.40
22444;DHT22;11389;50.864;4.330;2022-09-03T02:54:32;21.10;98.50
22444;DHT22;11389;50.864;4.330;2022-09-03T02:57:02;21.30;98.40
22444;DHT22;11389;50.864;4.330;2022-09-03T02:59:29;21.30;98.40
22444;DHT22;11389;50.864;4.330;2022-09-03T03:01:56;21.30;98.30
22444;DHT22;11389;50.864;4.330;2022-09-03T03:04:27;21.40;98.20
22444;DHT22;11389;50.864;4.330;2022-09-03T03:06:54;21.40;98.40
22444;DHT22;11389;50.864;4.330;2022-09-03T03:09:21;21.30;98.60
22444;DHT22;11389;50.864;4.330;2022-09-03T03:11:48;21.20;99.50
22444;DHT22;11389;50.864;4.330;2022-09-03T03:14:17;21.10;99.90
22444;DHT22;11389;50.864;4.330;2022-09-03T03:16:44;21.00;99.90
22444;DHT22;11389;50.864;4.330;2022-09-03T03:19:11;21.00;99.90
22444;DHT22;11389;50.864;4.330;2022-09-03T03:21:38;21.10;99.90
22444;DHT22;11389;50.864;4.330;2022-09-03T03:24:06;21.00;99.90
22444;DHT22;11389;50.864;4.330;2022-09-03T03:26:33;20.90;99.90
22444;DHT22;11389;50.864;4.330;2022-09-03T03:29:02;20.90;99.90
22444;DHT22;11389;50.864;4.330;2022-09-03T03:31:32;20.80;99.90
22444;DHT22;11389;50.864;4.330;2022-09-03T03:34:00;20.90;99.90
22444;DHT22;11389;50.864;4.330;2022-09-03T03:36:30;20.80;99.90
22444;DHT22;11389;50.864;4.330;2022-09-03T03:38:59;20.80;99.90
22444;DHT22;11389;50.864;4.330;2022-09-03T03:41:29;20.80;99.90
22444;DHT22;11389;50.864;4.330;2022-09-03T03:44:01;20.70;99.90
22444;DHT22;11389;50.864;4.330;2022-09-03T03:46:37;20.70;99.90
22444;DHT22;11389;50.864;4.330;2022-09-03T03:49:04;20.50;99.90
22444;DHT22;11389;50.864;4.330;2022-09-03T03:51:35;20.20;99.90
22444;DHT22;11389;50.864;4.330;2022-09-03T03:54:03;20.00;99.90
22444;DHT22;11389;50.864;4.330;2022-09-03T03:56:32;19.80;99.90
22444;DHT22;11389;50.864;4.330;2022-09-03T03:58:59;19.50;99.90
22444;DHT22;11389;50.864;4.330;2022-09-03T04:01:27;19.30;99.90
22444;DHT22;11389;50.864;4.330;2022-09-03T04:03:56;19.10;99.90
22444;DHT22;11389;50.864;4.330;2022-09-03T04:06:24;19.10;99.90
22444;DHT22;11389;50.864;4.330;2022-09-03T04:08:51;19.00;99.90
22444;DHT22;11389;50.864;4.330;2022-09-03T04:11:20;18.80;99.90
22444;DHT22;11389;50.864;4.330;2022-09-03T04:13:48;18.70;99.90
22444;DHT22;11389;50.864;4.330;2022-09-03T04:16:18;18.70;99.90
22444;DHT22;11389;50.864;4.330;2022-09-03T04:18:46;18.70;99.90
22444;DHT22;11389;50.864;4.330;2022-09-03T04:21:20;18.80;99.90
22444;DHT22;11389;50.864;4.330;2022-09-03T04:23:48;18.70;99.90
22444;DHT22;11389;50.864;4.330;2022-09-03T04:26:17;18.60;99.90
22444;DHT22;11389;50.864;4.330;2022-09-03T04:28:45;18.50;99.90
22444;DHT22;11389;50.864;4.330;2022-09-03T04:31:16;18.40;99.90
22444;DHT22;11389;50.864;4.330;2022-09-03T04:33:44;18.40;99.90
22444;DHT22;11389;50.864;4.330;2022-09-03T04:36:15;18.40;99.90
22444;DHT22;11389;50.864;4.330;2022-09-03T04:38:46;18.40;99.90
22444;DHT22;11389;50.864;4.330;2022-09-03T04:41:19;18.40;99.90
22444;DHT22;11389;50.864;4.330;2022-09-03T04:43:47;18.40;99.90
22444;DHT22;11389;50.864;4.330;2022-09-03T04:46:17;18.40;99.90
22444;DHT22;11389;50.864;4.330;2022-09-03T04:48:48;18.50;99.90
22444;DHT22;11389;50.864;4.330;2022-09-03T04:51:19;18.60;99.90
22444;DHT22;11389;50.864;4.330;2022-09-03T04:53:51;18.70;99.90
22444;DHT22;11389;50.864;4.330;2022-09-03T04:56:21;18.80;99.90
22444;DHT22;11389;50.864;4.330;2022-09-03T04:58:52;18.80;99.90
22444;DHT22;11389;50.864;4.330;2022-09-03T05:01:21;19.00;99.90
22444;DHT22;11389;50.864;4.330;2022-09-03T05:03:49;19.00;99.90
22444;DHT22;11389;50.864;4.330;2022-09-03T05:06:19;19.10;99.90
22444;DHT22;11389;50.864;4.330;2022-09-03T05:08:50;19.30;99.90
22444;DHT22;11389;50.864;4.330;2022-09-03T05:11:20;19.40;99.90
22444;DHT22;11389;50.864;4.330;2022-09-03T05:13:52;19.60;99.90
22444;DHT22;11389;50.864;4.330;2022-09-03T05:16:20;19.70;99.90
22444;DHT22;11389;50.864;4.330;2022-09-03T05:18:50;19.80;99.90
22444;DHT22;11389;50.864;4.330;2022-09-03T05:21:18;19.70;99.90
22444;DHT22;11389;50.864;4.330;2022-09-03T05:23:47;19.70;99.90
22444;DHT22;11389;50.864;4.330;2022-09-03T05:26:17;19.80;99.90
22444;DHT22;11389;50.864;4.330;2022-09-03T05:28:44;20.00;99.90
22444;DHT22;11389;50.864;4.330;2022-09-03T05:31:15;20.10;99.90
22444;DHT22;11389;50.864;4.330;2022-09-03T05:33:45;20.00;99.90
22444;DHT22;11389;50.864;4.330;2022-09-03T05:36:14;20.00;99.90
22444;DHT22;11389;50.864;4.330;2022-09-03T05:38:42;20.10;99.90
22444;DHT22;11389;50.864;4.330;2022-09-03T05:41:11;20.20;99.90
22444;DHT22;11389;50.864;4.330;2022-09-03T05:43:39;20.30;99.90
22444;DHT22;11389;50.864;4.330;2022-09-03T05:46:09;20.40;99.90
22444;DHT22;11389;50.864;4.330;2022-09-03T05:48:38;20.50;99.90
22444;DHT22;11389;50.864;4.330;2022-09-03T05:51:14;20.50;99.90
22444;DHT22;11389;50.864;4.330;2022-09-03T05:53:45;20.50;99.90
22444;DHT22;11389;50.864;4.330;2022-09-03T05:56:21;20.60;99.90
22444;DHT22;11389;50.864;4.330;2022-09-03T05:58:54;20.70;99.90
22444;DHT22;11389;50.864;4.330;2022-09-03T06:01:27;20.80;99.90
22444;DHT22;11389;50.864;4.330;2022-09-03T06:04:00;21.00;99.90
22444;DHT22;11389;50.864;4.330;2022-09-03T06:06:30;21.10;99.90
22444;DHT22;11389;50.864;4.330;2022-09-03T06:09:02;21.20;99.90
22444;DHT22;11389;50.864;4.330;2022-09-03T06:11:30;21.30;99.90
22444;DHT22;11389;50.864;4.330;2022-09-03T06:13:58;21.30;99.90
22444;DHT22;11389;50.864;4.330;2022-09-03T06:16:28;21.40;99.90
22444;DHT22;11389;50.864;4.330;2022-09-03T06:19:01;21.30;99.90
22444;DHT22;11389;50.864;4.330;2022-09-03T06:21:29;21.40;99.90
22444;DHT22;11389;50.864;4.330;2022-09-03T06:23:56;21.40;99.90
22444;DHT22;11389;50.864;4.330;2022-09-03T06:26:26;21.30;99.90
22444;DHT22;11389;50.864;4.330;2022-09-03T06:28:56;21.20;99.90
22444;DHT22;11389;50.864;4.330;2022-09-03T06:31:24;21.00;99.90
22444;DHT22;11389;50.864;4.330;2022-09-03T06:33:52;21.00;99.90
22444;DHT22;11389;50.864;4.330;2022-09-03T06:36:22;20.90;99.90
22444;DHT22;11389;50.864;4.330;2022-09-03T06:38:54;21.00;99.90
22444;DHT22;11389;50.864;4.330;2022-09-03T06:41:26;21.00;99.90
22444;DHT22;11389;50.864;4.330;2022-09-03T06:44:01;21.10;99.90
22444;DHT22;11389;50.864;4.330;2022-09-03T06:46:34;21.10;99.90
22444;DHT22;11389;50.864;4.330;2022-09-03T06:49:02;21.20;99.90
22444;DHT22;11389;50.864;4.330;2022-09-03T06:51:30;21.30;99.90
22444;DHT22;11389;50.864;4.330;2022-09-03T06:54:06;21.40;99.90
22444;DHT22;11389;50.864;4.330;2022-09-03T06:56:35;21.70;99.90
22444;DHT22;11389;50.864;4.330;2022-09-03T06:59:11;21.70;99.90
22444;DHT22;11389;50.864;4.330;2022-09-03T07:01:39;21.90;99.90
22444;DHT22;11389;50.864;4.330;2022-09-03T07:04:11;22.00;99.90
22444;DHT22;11389;50.864;4.330;2022-09-03T07:06:40;22.10;99.90
22444;DHT22;11389;50.864;4.330;2022-09-03T07:09:10;22.20;99.90
22444;DHT22;11389;50.864;4.330;2022-09-03T07:11:37;22.10;99.90
22444;DHT22;11389;50.864;4.330;2022-09-03T07:14:13;22.20;99.90
22444;DHT22;11389;50.864;4.330;2022-09-03T07:16:40;22.10;99.90
22444;DHT22;11389;50.864;4.330;2022-09-03T07:19:08;22.30;99.90
22444;DHT22;11389;50.864;4.330;2022-09-03T07:21:36;22.40;99.90
22444;DHT22;11389;50.864;4.330;2022-09-03T07:24:04;22.60;99.90
22444;DHT22;11389;50.864;4.330;2022-09-03T07:26:34;22.50;99.90
22444;DHT22;11389;50.864;4.330;2022-09-03T07:29:02;22.60;99.90
22444;DHT22;11389;50.864;4.330;2022-09-03T07:31:31;22.70;99.90
22444;DHT22;11389;50.864;4.330;2022-09-03T07:34:01;22.60;99.90
22444;DHT22;11389;50.864;4.330;2022-09-03T07:36:44;22.70;99.90
22444;DHT22;11389;50.864;4.330;2022-09-03T07:39:15;22.60;99.90
22444;DHT22;11389;50.864;4.330;2022-09-03T07:41:44;22.60;99.90
22444;DHT22;11389;50.864;4.330;2022-09-03T07:44:13;22.50;99.90
22444;DHT22;11389;50.864;4.330;2022-09-03T07:46:41;22.50;99.90
22444;DHT22;11389;50.864;4.330;2022-09-03T07:49:11;22.30;99.90
22444;DHT22;11389;50.864;4.330;2022-09-03T07:51:38;22.20;99.90
22444;DHT22;11389;50.864;4.330;2022-09-03T07:54:08;22.20;99.90
22444;DHT22;11389;50.864;4.330;2022-09-03T07:56:40;22.30;99.90
22444;DHT22;11389;50.864;4.330;2022-09-03T07:59:08;22.40;99.90
22444;DHT22;11389;50.864;4.330;2022-09-03T08:01:37;22.60;99.90
22444;DHT22;11389;50.864;4.330;2022-09-03T08:04:07;22.90;99.90
22444;DHT22;11389;50.864;4.330;2022-09-03T08:06:36;23.00;99.90
22444;DHT22;11389;50.864;4.330;2022-09-03T08:09:06;23.30;99.90
22444;DHT22;11389;50.864;4.330;2022-09-03T08:11:39;23.40;99.90
22444;DHT22;11389;50.864;4.330;2022-09-03T08:14:09;23.70;99.90
22444;DHT22;11389;50.864;4.330;2022-09-03T08:16:38;23.90;99.90
22444;DHT22;11389;50.864;4.330;2022-09-03T08:19:06;24.00;99.90
22444;DHT22;11389;50.864;4.330;2022-09-03T08:21:34;24.30;99.90
22444;DHT22;11389;50.864;4.330;2022-09-03T08:24:02;24.50;99.90
22444;DHT22;11389;50.864;4.330;2022-09-03T08:26:34;24.70;99.90
22444;DHT22;11389;50.864;4.330;2022-09-03T08:29:02;24.50;99.90
22444;DHT22;11389;50.864;4.330;2022-09-03T08:31:30;24.70;99.90
22444;DHT22;11389;50.864;4.330;2022-09-03T08:34:00;24.80;99.90
22444;DHT22;11389;50.864;4.330;2022-09-03T08:36:37;24.90;99.80
22444;DHT22;11389;50.864;4.330;2022-09-03T08:39:08;24.80;99.50
22444;DHT22;11389;50.864;4.330;2022-09-03T08:41:59;24.90;99.40
22444;DHT22;11389;50.864;4.330;2022-09-03T08:45:00;25.10;99.20
22444;DHT22;11389;50.864;4.330;2022-09-03T08:50:40;25.40;98.90
22444;DHT22;11389;50.864;4.330;2022-09-03T08:56:26;25.30;99.40
22444;DHT22;11389;50.864;4.330;2022-09-03T08:59:00;25.40;99.60
22444;DHT22;11389;50.864;4.330;2022-09-03T09:12:56;25.60;99.90
22444;DHT22;11389;50.864;4.330;2022-09-03T09:15:37;25.60;99.90
22444;DHT22;11389;50.864;4.330;2022-09-03T09:20:53;25.70;99.80
22444;DHT22;11389;50.864;4.330;2022-09-03T09:23:36;25.80;99.70
22444;DHT22;11389;50.864;4.330;2022-09-03T09:26:11;25.90;99.10
22444;DHT22;11389;50.864;4.330;2022-09-03T09:28:42;25.70;99.40
22444;DHT22;11389;50.864;4.330;2022-09-03T09:31:14;25.80;99.20
22444;DHT22;11389;50.864;4.330;2022-09-03T09:33:45;26.00;99.10
22444;DHT22;11389;50.864;4.330;2022-09-03T09:36:16;26.10;98.60
22444;DHT22;11389;50.864;4.330;2022-09-03T09:38:45;26.00;98.40
22444;DHT22;11389;50.864;4.330;2022-09-03T09:41:17;26.10;98.60
22444;DHT22;11389;50.864;4.330;2022-09-03T09:43:47;26.30;98.30
22444;DHT22;11389;50.864;4.330;2022-09-03T09:46:23;26.50;98.10
22444;DHT22;11389;50.864;4.330;2022-09-03T09:48:56;26.90;97.70
22444;DHT22;11389;50.864;4.330;2022-09-03T09:51:27;26.80;97.30
22444;DHT22;11389;50.864;4.330;2022-09-03T09:54:18;26.40;98.20
22444;DHT22;11389;50.864;4.330;2022-09-03T09:57:04;26.70;98.00
22444;DHT22;11389;50.864;4.330;2022-09-03T09:59:33;26.90;97.80
22444;DHT22;11389;50.864;4.330;2022-09-03T10:02:11;26.80;97.50
22444;DHT22;11389;50.864;4.330;2022-09-03T10:04:47;26.70;97.70
22444;DHT22;11389;50.864;4.330;2022-09-03T10:07:28;26.30;98.40
22444;DHT22;11389;50.864;4.330;2022-09-03T10:10:16;26.70;98.00
22444;DHT22;11389;50.864;4.330;2022-09-03T10:13:00;27.10;97.70
22444;DHT22;11389;50.864;4.330;2022-09-03T10:15:53;27.20;97.00
22444;DHT22;11389;50.864;4.330;2022-09-03T10:18:45;27.20;97.00
22444;DHT22;11389;50.864;4.330;2022-09-03T10:21:19;27.40;96.90
22444;DHT22;11389;50.864;4.330;2022-09-03T10:26:55;27.50;97.00
22444;DHT22;11389;50.864;4.330;2022-09-03T10:29:31;27.80;96.60
22444;DHT22;11389;50.864;4.330;2022-09-03T10:40:28;29.10;94.70
22444;DHT22;11389;50.864;4.330;2022-09-03T10:46:15;29.50;93.70
22444;DHT22;11389;50.864;4.330;2022-09-03T10:49:01;29.60;93.50
22444;DHT22;11389;50.864;4.330;2022-09-03T10:51:42;30.20;92.90
22444;DHT22;11389;50.864;4.330;2022-09-03T10:54:40;30.90;91.70
22444;DHT22;11389;50.864;4.330;2022-09-03T11:00:07;31.20;90.90
22444;DHT22;11389;50.864;4.330;2022-09-03T11:06:14;31.90;88.80
22444;DHT22;11389;50.864;4.330;2022-09-03T11:12:20;32.50;85.40
22444;DHT22;11389;50.864;4.330;2022-09-03T11:17:46;31.20;85.80
22444;DHT22;11389;50.864;4.330;2022-09-03T11:20:24;30.80;86.70
22444;DHT22;11389;50.864;4.330;2022-09-03T11:23:01;31.10;86.30
22444;DHT22;11389;50.864;4.330;2022-09-03T11:25:36;31.70;85.40
22444;DHT22;11389;50.864;4.330;2022-09-03T11:31:12;33.40;80.50
22444;DHT22;11389;50.864;4.330;2022-09-03T11:33:48;33.00;79.20
22444;DHT22;11389;50.864;4.330;2022-09-03T11:36:37;32.20;81.40
22444;DHT22;11389;50.864;4.330;2022-09-03T11:39:18;31.90;83.50
22444;DHT22;11389;50.864;4.330;2022-09-03T11:41:56;31.30;83.60
22444;DHT22;11389;50.864;4.330;2022-09-03T11:44:35;30.70;84.50
22444;DHT22;11389;50.864;4.330;2022-09-03T11:47:42;30.20;86.00
22444;DHT22;11389;50.864;4.330;2022-09-03T11:50:28;30.20;86.90
22444;DHT22;11389;50.864;4.330;2022-09-03T11:53:08;30.30;87.10
22444;DHT22;11389;50.864;4.330;2022-09-03T11:58:28;30.90;85.40
22444;DHT22;11389;50.864;4.330;2022-09-03T12:00:57;31.10;84.70
22444;DHT22;11389;50.864;4.330;2022-09-03T12:03:27;30.90;85.10
22444;DHT22;11389;50.864;4.330;2022-09-03T12:08:59;31.70;83.30
22444;DHT22;11389;50.864;4.330;2022-09-03T12:17:15;34.50;74.30
22444;DHT22;11389;50.864;4.330;2022-09-03T12:19:54;34.20;74.30
22444;DHT22;11389;50.864;4.330;2022-09-03T12:22:24;34.50;73.90
22444;DHT22;11389;50.864;4.330;2022-09-03T12:24:52;35.10;71.90
22444;DHT22;11389;50.864;4.330;2022-09-03T12:27:25;35.10;71.00
22444;DHT22;11389;50.864;4.330;2022-09-03T12:29:58;35.20;70.60
22444;DHT22;11389;50.864;4.330;2022-09-03T12:32:34;35.80;68.70
22444;DHT22;11389;50.864;4.330;2022-09-03T12:35:16;36.20;67.60
22444;DHT22;11389;50.864;4.330;2022-09-03T12:38:04;36.40;66.90
22444;DHT22;11389;50.864;4.330;2022-09-03T12:40:34;36.80;66.50
22444;DHT22;11389;50.864;4.330;2022-09-03T12:43:26;37.70;65.30
22444;DHT22;11389;50.864;4.330;2022-09-03T12:46:14;39.30;62.50
22444;DHT22;11389;50.864;4.330;2022-09-03T12:48:52;41.90;58.00
22444;DHT22;11389;50.864;4.330;2022-09-03T12:51:41;41.60;55.50
22444;DHT22;11389;50.864;4.330;2022-09-03T12:54:17;39.40;57.20
22444;DHT22;11389;50.864;4.330;2022-09-03T12:56:50;38.20;57.60
22444;DHT22;11389;50.864;4.330;2022-09-03T12:59:21;37.10;59.30
22444;DHT22;11389;50.864;4.330;2022-09-03T13:01:53;35.90;60.40
22444;DHT22;11389;50.864;4.330;2022-09-03T13:04:28;35.40;61.40
22444;DHT22;11389;50.864;4.330;2022-09-03T13:07:33;35.60;62.60
22444;DHT22;11389;50.864;4.330;2022-09-03T13:10:06;36.10;60.60
22444;DHT22;11389;50.864;4.330;2022-09-03T13:12:43;36.20;60.00
22444;DHT22;11389;50.864;4.330;2022-09-03T13:15:21;35.60;60.60
22444;DHT22;11389;50.864;4.330;2022-09-03T13:21:13;34.40;62.50
22444;DHT22;11389;50.864;4.330;2022-09-03T13:29:37;33.60;64.50
22444;DHT22;11389;50.864;4.330;2022-09-03T13:35:46;34.10;64.20
22444;DHT22;11389;50.864;4.330;2022-09-03T13:40:59;35.40;62.10
22444;DHT22;11389;50.864;4.330;2022-09-03T13:44:05;37.50;58.60
22444;DHT22;11389;50.864;4.330;2022-09-03T13:46:47;39.70;56.10
22444;DHT22;11389;50.864;4.330;2022-09-03T13:52:30;41.60;52.70
22444;DHT22;11389;50.864;4.330;2022-09-03T13:55:08;43.30;51.50
22444;DHT22;11389;50.864;4.330;2022-09-03T13:57:48;44.50;49.80
22444;DHT22;11389;50.864;4.330;2022-09-03T14:00:42;46.10;46.20
22444;DHT22;11389;50.864;4.330;2022-09-03T14:09:11;43.20;44.90
22444;DHT22;11389;50.864;4.330;2022-09-03T14:12:02;42.90;45.40
22444;DHT22;11389;50.864;4.330;2022-09-03T14:14:59;42.20;46.00
22444;DHT22;11389;50.864;4.330;2022-09-03T14:17:51;40.10;47.80
22444;DHT22;11389;50.864;4.330;2022-09-03T14:20:28;37.90;50.10
22444;DHT22;11389;50.864;4.330;2022-09-03T14:23:06;36.20;52.50
22444;DHT22;11389;50.864;4.330;2022-09-03T14:25:36;34.80;55.30
22444;DHT22;11389;50.864;4.330;2022-09-03T14:28:39;33.40;57.30
22444;DHT22;11389;50.864;4.330;2022-09-03T14:39:27;30.60;64.50
22444;DHT22;11389;50.864;4.330;2022-09-03T14:55:55;29.40;68.70
22444;DHT22;11389;50.864;4.330;2022-09-03T15:01:11;28.90;70.80
22444;DHT22;11389;50.864;4.330;2022-09-03T15:11:56;28.00;75.00
22444;DHT22;11389;50.864;4.330;2022-09-03T15:14:57;28.00;75.30
22444;DHT22;11389;50.864;4.330;2022-09-03T15:17:46;28.10;75.30
22444;DHT22;11389;50.864;4.330;2022-09-03T15:20:45;28.20;75.40
22444;DHT22;11389;50.864;4.330;2022-09-03T15:37:46;29.00;74.40
22444;DHT22;11389;50.864;4.330;2022-09-03T15:42:39;29.20;73.80
22444;DHT22;11389;50.864;4.330;2022-09-03T15:45:38;29.20;73.00
22444;DHT22;11389;50.864;4.330;2022-09-03T15:48:31;29.40;73.50
22444;DHT22;11389;50.864;4.330;2022-09-03T15:54:00;29.20;75.10
22444;DHT22;11389;50.864;4.330;2022-09-03T15:59:41;30.20;74.70
22444;DHT22;11389;50.864;4.330;2022-09-03T16:11:08;33.00;65.40
22444;DHT22;11389;50.864;4.330;2022-09-03T16:14:05;33.30;65.90
22444;DHT22;11389;50.864;4.330;2022-09-03T16:22:24;32.60;60.60
22444;DHT22;11389;50.864;4.330;2022-09-03T16:25:03;31.90;64.00
22444;DHT22;11389;50.864;4.330;2022-09-03T16:30:34;30.40;69.90
22444;DHT22;11389;50.864;4.330;2022-09-03T16:33:40;30.90;68.20
22444;DHT22;11389;50.864;4.330;2022-09-03T16:42:26;33.20;63.40
22444;DHT22;11389;50.864;4.330;2022-09-03T16:45:18;33.00;63.50
22444;DHT22;11389;50.864;4.330;2022-09-03T16:48:05;32.10;65.30
22444;DHT22;11389;50.864;4.330;2022-09-03T16:56:30;30.40;69.90
22444;DHT22;11389;50.864;4.330;2022-09-03T17:02:09;29.80;71.30
22444;DHT22;11389;50.864;4.330;2022-09-03T17:11:21;29.30;72.20
22444;DHT22;11389;50.864;4.330;2022-09-03T17:14:16;29.10;72.60
22444;DHT22;11389;50.864;4.330;2022-09-03T17:20:36;28.10;76.90
22444;DHT22;11389;50.864;4.330;2022-09-03T17:23:01;27.50;79.80
22444;DHT22;11389;50.864;4.330;2022-09-03T17:25:38;27.10;81.30
22444;DHT22;11389;50.864;4.330;2022-09-03T17:30:48;26.70;82.30
22444;DHT22;11389;50.864;4.330;2022-09-03T17:39:55;26.10;83.40
22444;DHT22;11389;50.864;4.330;2022-09-03T17:42:38;25.60;86.00
22444;DHT22;11389;50.864;4.330;2022-09-03T17:54:14;25.10;89.00
22444;DHT22;11389;50.864;4.330;2022-09-03T18:07:45;24.80;90.70
22444;DHT22;11389;50.864;4.330;2022-09-03T18:16:11;24.70;91.80
22444;DHT22;11389;50.864;4.330;2022-09-03T18:18:46;24.60;92.20
22444;DHT22;11389;50.864;4.330;2022-09-03T18:21:29;24.50;92.50
22444;DHT22;11389;50.864;4.330;2022-09-03T18:27:38;24.30;92.60
22444;DHT22;11389;50.864;4.330;2022-09-03T18:30:24;24.40;92.60
22444;DHT22;11389;50.864;4.330;2022-09-03T18:33:14;24.30;93.20
22444;DHT22;11389;50.864;4.330;2022-09-03T18:36:05;24.50;93.30
22444;DHT22;11389;50.864;4.330;2022-09-03T18:38:51;24.40;93.70
22444;DHT22;11389;50.864;4.330;2022-09-03T18:41:49;24.30;94.40
22444;DHT22;11389;50.864;4.330;2022-09-03T18:48:11;24.20;94.30
22444;DHT22;11389;50.864;4.330;2022-09-03T18:54:20;23.90;95.40
22444;DHT22;11389;50.864;4.330;2022-09-03T19:00:43;23.50;97.80
22444;DHT22;11389;50.864;4.330;2022-09-03T19:06:44;23.30;99.90
22444;DHT22;11389;50.864;4.330;2022-09-03T19:16:09;23.30;99.90
22444;DHT22;11389;50.864;4.330;2022-09-03T19:21:58;23.10;99.90
22444;DHT22;11389;50.864;4.330;2022-09-03T19:24:52;23.00;99.90
22444;DHT22;11389;50.864;4.330;2022-09-03T19:37:46;22.90;99.90
22444;DHT22;11389;50.864;4.330;2022-09-03T19:46:43;22.80;99.90
22444;DHT22;11389;50.864;4.330;2022-09-03T19:52:48;22.70;99.90
22444;DHT22;11389;50.864;4.330;2022-09-03T19:55:39;22.70;99.90
22444;DHT22;11389;50.864;4.330;2022-09-03T19:58:35;22.60;99.90
22444;DHT22;11389;50.864;4.330;2022-09-03T20:01:25;22.60;99.90
22444;DHT22;11389;50.864;4.330;2022-09-03T20:04:14;22.50;99.90
22444;DHT22;11389;50.864;4.330;2022-09-03T20:07:03;22.40;99.90
22444;DHT22;11389;50.864;4.330;2022-09-03T20:09:51;22.40;99.90
22444;DHT22;11389;50.864;4.330;2022-09-03T20:12:42;22.50;99.90
22444;DHT22;11389;50.864;4.330;2022-09-03T20:15:11;22.40;99.90
22444;DHT22;11389;50.864;4.330;2022-09-03T20:23:29;22.40;99.90
22444;DHT22;11389;50.864;4.330;2022-09-03T20:32:02;22.40;99.90
22444;DHT22;11389;50.864;4.330;2022-09-03T20:37:49;22.40;99.90
22444;DHT22;11389;50.864;4.330;2022-09-03T20:40:45;22.30;99.90
22444;DHT22;11389;50.864;4.330;2022-09-03T20:51:35;22.10;99.90
22444;DHT22;11389;50.864;4.330;2022-09-03T20:54:28;22.10;99.90
22444;DHT22;11389;50.864;4.330;2022-09-03T20:57:12;22.00;99.90
22444;DHT22;11389;50.864;4.330;2022-09-03T21:02:59;21.90;99.90
22444;DHT22;11389;50.864;4.330;2022-09-03T21:05:53;21.80;99.90
22444;DHT22;11389;50.864;4.330;2022-09-03T21:11:52;21.80;99.90
22444;DHT22;11389;50.864;4.330;2022-09-03T21:25:44;21.80;99.90
22444;DHT22;11389;50.864;4.330;2022-09-03T21:28:26;21.70;99.90
22444;DHT22;11389;50.864;4.330;2022-09-03T21:31:01;21.50;99.90
22444;DHT22;11389;50.864;4.330;2022-09-03T21:33:36;21.50;99.90
22444;DHT22;11389;50.864;4.330;2022-09-03T21:36:28;21.50;99.90
22444;DHT22;11389;50.864;4.330;2022-09-03T21:39:37;21.40;99.90
22444;DHT22;11389;50.864;4.330;2022-09-03T21:42:33;21.30;99.90
22444;DHT22;11389;50.864;4.330;2022-09-03T21:47:38;21.20;99.90
22444;DHT22;11389;50.864;4.330;2022-09-03T21:50:19;21.20;99.90
22444;DHT22;11389;50.864;4.330;2022-09-03T21:52:54;21.20;99.90
22444;DHT22;11389;50.864;4.330;2022-09-03T22:01:11;21.10;99.90
22444;DHT22;11389;50.864;4.330;2022-09-03T22:03:41;21.20;99.90
22444;DHT22;11389;50.864;4.330;2022-09-03T22:06:16;21.10;99.90
22444;DHT22;11389;50.864;4.330;2022-09-03T22:09:03;21.10;99.90
22444;DHT22;11389;50.864;4.330;2022-09-03T22:12:02;21.20;99.90
22444;DHT22;11389;50.864;4.330;2022-09-03T22:14:47;21.20;99.90
22444;DHT22;11389;50.864;4.330;2022-09-03T22:17:31;21.10;99.90
22444;DHT22;11389;50.864;4.330;2022-09-03T22:20:04;21.10;99.90
22444;DHT22;11389;50.864;4.330;2022-09-03T22:33:42;20.90;99.90
22444;DHT22;11389;50.864;4.330;2022-09-03T22:36:20;21.00;99.90
22444;DHT22;11389;50.864;4.330;2022-09-03T22:44:45;20.80;99.90
22444;DHT22;11389;50.864;4.330;2022-09-03T22:47:36;20.90;99.90